Detall de PIREP

Printer-friendly versionPDF version

[2016/12/12 07:39:00]
Flight IATA:CT3242
Pilot Number:012
Company ICAO:CAT
Aircraft Type:MD11/E
PAX:155
Aircraft Registration:PAX
Departing Airport: LEPA
Destination Airport: LBSF
Alternate Airport:LWSK
Online: VATSIM
Route:MORSS/N0476F340 UM603 ELSAG M603 POKAV/N0484F350 M620 SOR M603 GOKEL UM603 TSL UM987 EVIVI N133 VANET
Flight Level:F350
No Slew and time accel
No pause
Crash detect
Detect pilot in Cockpit between each 30 and 45 minutes
07:39 Zero fuel Weight: 350017 Lbs, Fuel Weight: 60862 Lbs
07:39 VATSIM:LEPA 110704Z VRB01KT 6000 0300N R24L/0900U BCFG VV001 09/09 Q1026 TEMPO 2000 BR
07:39 VATSIM:LBSF 110700Z 17003KT 140V230 6000 NSC M01/M02 Q1021 NOSIG
07:40 Parking Brakes off
07:45 Take-off
07:45 Take off Weight: 409758 Lbs
07:45 Wind: 359º @ 001 Knots Heading: 238º
07:45 POS N39º 33´ 19´´ E002º 43´ 41´´
07:45 Flaps:3 at 196 Knots
07:45 Gear Up: 199 Knots
07:46 Flaps:2 at 218 Knots
07:46 Flaps:3 at 220 Knots
07:46 Flaps:2 at 220 Knots
07:46 Flaps:1 at 221 Knots
07:47 Flaps:0 at 236 Knots
08:00 Wind:038º@022 Knots Heading: 063º Ground Speed: 454 Knots Altitude 33989 ft
08:15 Wind:085º@007 Knots Heading: 073º Ground Speed: 464 Knots Altitude 33940 ft
08:30 Wind:126º@013 Knots Heading: 084º Ground Speed: 464 Knots Altitude 33937 ft
08:45 Wind:097º@007 Knots Heading: 092º Ground Speed: 463 Knots Altitude 33927 ft
08:58 TOC
08:58 Fuel Weight: 36564 Lb
09:00 Wind:111º@013 Knots Heading: 097º Ground Speed: 460 Knots Altitude 34931 ft
09:15 Wind:113º@019 Knots Heading: 088º Ground Speed: 448 Knots Altitude 34904 ft
09:30 Wind:115º@021 Knots Heading: 093º Ground Speed: 452 Knots Altitude 34914 ft
09:45 Wind:112º@003 Knots Heading: 088º Ground Speed: 471 Knots Altitude 34865 ft
10:00 Wind:228º@009 Knots Heading: 007º Ground Speed: 475 Knots Altitude 34835 ft
10:01 TOD
10:01 Fuel Weight: 21751 Lb
10:10 Flaps:1 at 234 Knots
10:11 Flaps:2 at 218 Knots
10:11 Flaps:3 at 218 Knots
10:15 Wind:300º@010 Knots Heading: 059º Ground Speed: 202 Knots Altitude 11325 ft
10:16 Gear Down: 168 Knots
10:18 Flaps:4 at 173 Knots
10:18 Flaps:3 at 173 Knots
10:18 Flaps:4 at 172 Knots
10:18 Flaps:5 at 171 Knots
10:18 Flaps:6 at 170 Knots
10:18 Flaps:7 at 145 Knots
10:24 TouchDown:Rate -309 ft/min Speed: 139 Knots
10:24 VATSIM:LBSF 111000Z 16003KT 120V200 CAVOK 08/01 Q1019 NOSIG
10:24 Land
10:24 Wind:000º@002 Knots
10:24 Heading: 276º
10:24 Flight Duration: 02:39
10:24 Landing Weight: 367547 Lbs
10:24 POS N42º 41´ 45´´ E023º 24´ 25´´
10:27 Parking brakes on
10:27 Block to Block Duration: 02:47
10:27 Final Fuel: 17301 Lbls
10:27 Spent Fuel: 43560 Lbls
10:27 Flight Length: 1138 NM
10:27 TOD Land Length: 105 NM

Exportar CSV

Powered by Drupal - Modified by Danger4k